Time;durP1;ratioP1;P1;durP2;ratioP2;P2;SDS_P1;SDS_P2;PMS_P1;PMS_P2;Temp;Humidity;BMP_temperature;BMP_pressure;BME280_temperature;BME280_humidity;BME280_pressure;Samples;Min_cycle;Max_cycle;Signal;HPM_P1;HPM_P2
2022/01/07 00:03:01;;;;;;;4.63;1.60;;;;;4.00;100924.00;;;;9879465;30;20207;-79
2022/01/07 00:08:04;;;;;;;9.23;2.07;;;;;4.00;100924.00;;;;9885501;29;20195;-79
2022/01/07 00:13:09;;;;;;;7.93;2.00;;;;;4.00;100921.00;;;;9915966;29;20209;-80
2022/01/07 00:18:11;;;;;;;6.50;2.27;;;;;4.00;100919.00;;;;9916320;29;20219;-80
2022/01/07 00:23:13;;;;;;;5.87;2.10;;;;;4.10;100913.00;;;;9900718;29;20226;-79
2022/01/07 00:28:15;;;;;;;5.33;1.90;;;;;4.10;100895.00;;;;9929596;29;20202;-79
2022/01/07 00:33:17;;;;;;;4.67;1.70;;;;;4.10;100891.00;;;;9900676;29;20264;-80
2022/01/07 00:38:19;;;;;;;6.53;2.13;;;;;4.10;100874.00;;;;9930376;29;20218;-80
2022/01/07 00:43:21;;;;;;;5.13;1.97;;;;;4.20;100873.00;;;;9915618;29;20276;-79
2022/01/07 00:48:23;;;;;;;6.60;2.03;;;;;4.10;100856.00;;;;9900484;29;20694;-79
2022/01/07 00:53:25;;;;;;;6.53;2.10;;;;;4.10;100847.00;;;;9914667;29;20248;-79
2022/01/07 00:58:27;;;;;;;6.33;2.57;;;;;4.10;100855.00;;;;9917978;29;20258;-79
2022/01/07 01:03:29;;;;;;;5.93;2.10;;;;;4.10;100838.00;;;;9951817;29;20256;-79
2022/01/07 01:08:31;;;;;;;5.27;2.20;;;;;4.10;100834.00;;;;9932148;29;20207;-80
2022/01/07 01:13:33;;;;;;;5.83;1.90;;;;;4.10;100834.00;;;;9922062;29;20211;-79
2022/01/07 01:18:35;;;;;;;4.60;2.00;;;;;4.10;100844.00;;;;9933450;29;20588;-79
2022/01/07 01:23:38;;;;;;;3.57;2.13;;;;;4.10;100844.00;;;;9935244;29;20727;-79
2022/01/07 01:28:40;;;;;;;7.00;2.40;;;;;4.10;100847.00;;;;9921401;29;20199;-79
2022/01/07 01:33:44;;;;;;;11.23;3.07;;;;;4.00;100846.00;;;;9905530;29;20617;-80
2022/01/07 01:38:46;;;;;;;9.43;2.73;;;;;3.90;100830.00;;;;9908485;29;20216;-79
2022/01/07 01:43:49;;;;;;;6.13;2.97;;;;;3.80;100826.00;;;;9868639;30;20203;-79
2022/01/07 01:48:51;;;;;;;6.37;2.67;;;;;3.70;100822.00;;;;9868489;30;20257;-80
2022/01/07 01:53:53;;;;;;;7.07;3.20;;;;;3.60;100828.00;;;;9884527;30;20227;-82
2022/01/07 01:58:55;;;;;;;5.27;2.57;;;;;3.50;100824.00;;;;9869387;30;20224;-81
2022/01/07 02:03:57;;;;;;;7.40;2.80;;;;;3.40;100816.00;;;;9869010;29;20212;-82
2022/01/07 02:08:59;;;;;;;7.67;3.13;;;;;3.40;100797.00;;;;9881287;29;20230;-81
2022/01/07 02:14:01;;;;;;;15.87;3.40;;;;;3.40;100790.00;;;;9920326;29;20547;-82
2022/01/07 02:19:03;;;;;;;7.20;3.03;;;;;3.40;100780.00;;;;9905932;29;20215;-82
2022/01/07 02:24:06;;;;;;;6.77;3.50;;;;;3.30;100762.00;;;;9934972;29;20227;-83
2022/01/07 02:29:08;;;;;;;5.20;3.60;;;;;3.30;100752.00;;;;9919514;29;20206;-83
2022/01/07 02:34:10;;;;;;;6.97;3.57;;;;;3.20;100736.00;;;;9920000;29;20240;-83
2022/01/07 02:39:12;;;;;;;5.77;3.33;;;;;3.20;100734.00;;;;9905182;29;20219;-82
2022/01/07 02:44:14;;;;;;;7.20;3.70;;;;;3.20;100735.00;;;;9904314;29;20222;-82
2022/01/07 02:49:18;;;;;;;4.20;3.30;;;;;3.20;100730.00;;;;9904617;29;20206;-82
2022/01/07 02:54:20;;;;;;;9.03;4.10;;;;;3.10;100708.00;;;;9919622;29;20199;-83
2022/01/07 02:59:22;;;;;;;8.93;3.87;;;;;3.20;100728.00;;;;9918813;29;20304;-82
2022/01/07 03:04:26;;;;;;;5.03;3.27;;;;;3.20;100713.00;;;;9933289;29;20195;-82
2022/01/07 03:09:29;;;;;;;5.67;3.50;;;;;3.20;100700.00;;;;9889104;29;20207;-82
2022/01/07 03:14:31;;;;;;;6.47;3.03;;;;;3.20;100696.00;;;;9933439;29;20651;-82
2022/01/07 03:19:33;;;;;;;5.00;3.33;;;;;3.20;100695.00;;;;9932837;29;20268;-82
2022/01/07 03:24:35;;;;;;;8.57;3.57;;;;;3.30;100694.00;;;;9933295;29;20238;-82
2022/01/07 03:29:37;;;;;;;4.70;3.17;;;;;3.30;100702.00;;;;9933194;29;20202;-82
2022/01/07 03:34:39;;;;;;;6.87;3.93;;;;;3.30;100695.00;;;;9932950;29;20214;-82
2022/01/07 03:39:41;;;;;;;8.07;4.17;;;;;3.40;100692.00;;;;9902629;29;20219;-83
2022/01/07 03:44:43;;;;;;;6.17;3.87;;;;;3.40;100684.00;;;;9903582;29;20301;-82
2022/01/07 03:49:45;;;;;;;8.13;4.07;;;;;3.40;100685.00;;;;9903122;29;20199;-83
2022/01/07 03:54:48;;;;;;;14.67;4.53;;;;;3.40;100679.00;;;;9902694;29;20207;-83
2022/01/07 03:59:50;;;;;;;6.87;3.77;;;;;3.40;100669.00;;;;9917846;29;20215;-83
2022/01/07 04:04:52;;;;;;;7.97;3.73;;;;;3.40;100661.00;;;;9917101;29;20650;-82
2022/01/07 04:09:54;;;;;;;6.50;4.40;;;;;3.40;100650.00;;;;9886998;29;20206;-82
2022/01/07 04:15:08;;;;;;;7.70;4.97;;;;;3.50;100656.00;;;;9902401;29;20249;-83
2022/01/07 04:20:13;;;;;;;7.67;4.60;;;;;3.50;100659.00;;;;9902633;29;20639;-83
2022/01/07 04:25:17;;;;;;;11.23;5.23;;;;;3.60;100649.00;;;;9916960;29;20211;-82
2022/01/07 04:30:21;;;;;;;6.63;4.40;;;;;3.60;100662.00;;;;9866325;30;20203;-83
2022/01/07 04:35:24;;;;;;;5.90;4.13;;;;;3.70;100657.00;;;;9885280;30;20757;-82
2022/01/07 04:40:27;;;;;;;10.03;5.07;;;;;3.70;100662.00;;;;9872103;30;20569;-82
2022/01/07 04:45:29;;;;;;;8.50;5.40;;;;;3.70;100675.00;;;;9902048;30;20261;-81
2022/01/07 04:50:31;;;;;;;6.50;4.93;;;;;3.80;100670.00;;;;9857069;30;20204;-81
2022/01/07 04:55:38;;;;;;;12.30;5.60;;;;;3.80;100665.00;;;;9902148;30;20200;-81
2022/01/07 05:00:43;;;;;;;9.13;6.17;;;;;3.90;100662.00;;;;9871998;30;20204;-83
2022/01/07 05:05:49;;;;;;;11.13;6.10;;;;;3.90;100653.00;;;;9871133;30;20195;-83
2022/01/07 05:10:51;;;;;;;11.87;6.00;;;;;3.90;100656.00;;;;9913212;29;20240;-83
2022/01/07 05:15:52;;;;;;;11.73;6.20;;;;;4.00;100641.00;;;;9922738;29;20215;-83
2022/01/07 05:20:54;;;;;;;8.80;5.47;;;;;4.00;100643.00;;;;9907404;29;20222;-83
2022/01/07 05:25:56;;;;;;;12.57;7.20;;;;;4.10;100647.00;;;;9907934;29;20210;-84
2022/01/07 05:30:59;;;;;;;12.00;5.87;;;;;4.10;100653.00;;;;9891813;29;20775;-83
2022/01/07 05:36:02;;;;;;;12.30;6.43;;;;;4.10;100655.00;;;;9921691;29;20223;-83
2022/01/07 05:41:04;;;;;;;11.07;6.50;;;;;4.10;100654.00;;;;9921526;29;20211;-83
2022/01/07 05:46:08;;;;;;;13.03;6.30;;;;;4.00;100648.00;;;;9921707;29;20191;-84
2022/01/07 05:51:10;;;;;;;9.67;5.23;;;;;4.00;100655.00;;;;9920973;29;20268;-83
2022/01/07 05:56:12;;;;;;;8.40;5.63;;;;;4.00;100655.00;;;;9906623;29;20219;-83
2022/01/07 06:01:13;;;;;;;9.80;6.17;;;;;4.00;100651.00;;;;9940016;29;20259;-82
2022/01/07 06:06:16;;;;;;;7.60;5.27;;;;;4.10;100650.00;;;;9987631;29;20198;-82
2022/01/07 06:11:18;;;;;;;11.57;7.00;;;;;4.10;100652.00;;;;9927291;29;20207;-83
2022/01/07 06:16:20;;;;;;;14.07;7.03;;;;;4.20;100658.00;;;;9920489;29;20223;-82
2022/01/07 06:21:22;;;;;;;15.67;6.77;;;;;4.30;100650.00;;;;9905815;29;20233;-83
2022/01/07 06:26:23;;;;;;;11.03;6.10;;;;;4.30;100639.00;;;;9905231;29;20195;-82
2022/01/07 06:31:25;;;;;;;10.13;5.43;;;;;4.30;100652.00;;;;9920468;29;20232;-82
2022/01/07 06:36:28;;;;;;;12.87;6.57;;;;;4.40;100648.00;;;;9919807;29;20301;-83
2022/01/07 06:41:31;;;;;;;6.60;4.73;;;;;4.40;100653.00;;;;9887154;30;20212;-82
2022/01/07 06:46:32;;;;;;;8.43;5.90;;;;;4.50;100663.00;;;;9851967;30;20195;-80
2022/01/07 06:51:35;;;;;;;7.83;5.20;;;;;4.50;100653.00;;;;9896475;30;20200;-82
2022/01/07 06:56:41;;;;;;;10.83;4.83;;;;;4.50;100658.00;;;;9881088;29;20222;-82
2022/01/07 07:01:48;;;;;;;7.83;5.23;;;;;4.60;100663.00;;;;9882237;30;20204;-82
2022/01/07 07:06:51;;;;;;;12.30;5.87;;;;;4.60;100652.00;;;;9867385;30;20282;-82
2022/01/07 07:11:53;;;;;;;7.23;5.13;;;;;4.60;100647.00;;;;9901561;29;20241;-82
2022/01/07 07:16:55;;;;;;;11.57;4.27;;;;;4.60;100644.00;;;;9933790;29;20226;-82
2022/01/07 07:21:57;;;;;;;12.77;6.33;;;;;4.60;100656.00;;;;9917984;29;20235;-83
2022/01/07 07:26:59;;;;;;;7.57;4.97;;;;;4.60;100652.00;;;;9917727;29;20203;-82
2022/01/07 07:32:04;;;;;;;6.87;4.83;;;;;4.70;100655.00;;;;9932414;29;20203;-82
2022/01/07 07:37:07;;;;;;;8.97;5.00;;;;;4.70;100654.00;;;;9901586;29;20291;-81
2022/01/07 07:42:09;;;;;;;9.63;5.30;;;;;4.80;100680.00;;;;9917235;29;20214;-81
2022/01/07 07:47:13;;;;;;;8.10;5.47;;;;;4.80;100654.00;;;;9917649;29;20203;-82
2022/01/07 07:52:15;;;;;;;10.17;6.27;;;;;4.90;100656.00;;;;9946542;29;20671;-82
2022/01/07 07:57:19;;;;;;;8.90;5.03;;;;;4.90;100665.00;;;;9916294;29;20216;-82
2022/01/07 08:02:21;;;;;;;6.37;4.80;;;;;4.90;100659.00;;;;9931224;29;20203;-82
2022/01/07 08:07:23;;;;;;;8.47;4.07;;;;;4.90;100658.00;;;;9945275;29;20716;-82
2022/01/07 08:12:49;;;;;;;8.90;5.57;;;;;4.90;100660.00;;;;9916132;29;20564;-82
2022/01/07 08:17:47;;;;;;;8.90;4.93;;;;;4.90;100661.00;;;;9931036;29;20245;-81
2022/01/07 08:22:49;;;;;;;9.63;4.50;;;;;5.00;100660.00;;;;9901413;29;20257;-81
2022/01/07 08:27:51;;;;;;;11.90;3.83;;;;;5.10;100657.00;;;;9915897;29;20191;-81
2022/01/07 08:38:13;;;;;;;7.93;4.03;;;;;5.10;100647.00;;;;9886532;29;20221;-81
2022/01/07 08:43:15;;;;;;;6.93;4.10;;;;;5.10;100662.00;;;;9901302;29;20268;-82
2022/01/07 08:48:17;;;;;;;6.07;3.80;;;;;5.20;100667.00;;;;9901261;29;20200;-81
2022/01/07 08:53:20;;;;;;;7.17;3.90;;;;;5.20;100654.00;;;;9900368;29;20202;-81
2022/01/07 08:58:22;;;;;;;6.17;4.17;;;;;5.40;100656.00;;;;9900147;29;20290;-81
2022/01/07 09:03:25;;;;;;;4.17;3.00;;;;;5.50;100663.00;;;;9901673;29;20203;-82
2022/01/07 09:08:26;;;;;;;4.70;3.33;;;;;5.50;100651.00;;;;9891045;29;20269;-81
2022/01/07 09:13:28;;;;;;;7.17;3.53;;;;;5.70;100661.00;;;;9877633;30;20200;-81
2022/01/07 09:18:32;;;;;;;8.23;4.10;;;;;5.70;100659.00;;;;9879585;29;20223;-82
2022/01/07 09:23:34;;;;;;;8.77;4.13;;;;;5.80;100655.00;;;;9884498;29;20238;-81
2022/01/07 09:28:36;;;;;;;8.97;4.10;;;;;5.70;100659.00;;;;9884944;30;20200;-81
2022/01/07 09:33:38;;;;;;;8.30;3.57;;;;;5.60;100676.00;;;;9869380;30;20208;-81
2022/01/07 09:39:00;;;;;;;11.27;5.17;;;;;5.60;100654.00;;;;9883108;29;20225;-82
2022/01/07 09:44:03;;;;;;;12.33;3.97;;;;;5.80;100650.00;;;;9921463;29;20221;-81
2022/01/07 09:49:06;;;;;;;8.10;3.87;;;;;5.80;100659.00;;;;9934976;29;20195;-81
2022/01/07 09:54:08;;;;;;;11.03;3.73;;;;;5.70;100662.00;;;;9891506;29;20207;-81
2022/01/07 09:59:10;;;;;;;10.17;3.93;;;;;5.70;100656.00;;;;9935367;29;20587;-81
2022/01/07 10:10:19;;;;;;;10.03;4.20;;;;;5.70;100634.00;;;;10010047;24;20257;-80
2022/01/07 10:15:23;;;;;;;8.43;3.90;;;;;6.00;100633.00;;;;9914912;29;20211;-80
2022/01/07 10:20:32;;;;;;;9.10;3.57;;;;;6.90;100644.00;;;;9896805;30;20306;-78
2022/01/07 10:25:35;;;;;;;11.40;4.00;;;;;6.80;100650.00;;;;9902837;29;20227;-78
2022/01/07 10:30:42;;;;;;;8.17;3.53;;;;;6.60;100641.00;;;;9917907;29;20197;-79
2022/01/07 10:35:45;;;;;;;6.50;3.20;;;;;6.70;100629.00;;;;9904503;29;20543;-81
2022/01/07 10:40:49;;;;;;;7.53;3.70;;;;;6.90;100626.00;;;;9886697;30;20219;-80
2022/01/07 10:45:54;;;;;;;8.23;3.93;;;;;7.20;100637.00;;;;9866922;29;20295;-83
2022/01/07 10:50:55;;;;;;;9.07;3.77;;;;;6.70;100634.00;;;;9919585;29;20195;-82
2022/01/07 10:55:59;;;;;;;7.27;3.10;;;;;6.10;100634.00;;;;9918951;29;20265;-82
2022/01/07 11:01:03;;;;;;;8.30;2.80;;;;;5.60;100636.00;;;;9939108;29;20220;-84
2022/01/07 11:06:05;;;;;;;8.70;3.00;;;;;5.20;100627.00;;;;9937484;29;20227;-84
2022/01/07 11:11:11;;;;;;;8.07;3.90;;;;;5.00;100611.00;;;;9903911;29;20258;-84
2022/01/07 11:16:13;;;;;;;7.53;3.20;;;;;5.00;100592.00;;;;9904069;29;20214;-84
2022/01/07 11:21:17;;;;;;;5.93;3.27;;;;;4.90;100598.00;;;;9888731;29;20703;-84
2022/01/07 11:26:19;;;;;;;7.33;2.53;;;;;5.00;100609.00;;;;9903425;29;20247;-84
2022/01/07 11:31:21;;;;;;;1.87;1.60;;;;;5.10;100605.00;;;;9888545;29;20298;-84
2022/01/07 11:36:38;;;;;;;4.13;1.47;;;;;5.20;100608.00;;;;9903075;29;20199;-85
2022/01/07 11:41:42;;;;;;;6.23;2.50;;;;;5.30;100601.00;;;;9888239;29;20238;-82
2022/01/07 11:46:43;;;;;;;7.07;2.80;;;;;5.40;100610.00;;;;9903989;29;20202;-83
2022/01/07 11:51:45;;;;;;;6.57;2.70;;;;;5.60;100599.00;;;;9917737;29;20226;-81
2022/01/07 11:56:48;;;;;;;9.30;3.40;;;;;5.90;100604.00;;;;9902649;29;20209;-81
2022/01/07 12:02:01;;;;;;;7.67;3.20;;;;;6.00;100597.00;;;;9902661;29;20294;-80
2022/01/07 12:07:06;;;;;;;9.37;4.10;;;;;6.10;100596.00;;;;9886924;29;20227;-80
2022/01/07 12:12:13;;;;;;;5.87;3.77;;;;;6.20;100590.00;;;;9902889;29;20222;-80
2022/01/07 12:17:18;;;;;;;10.73;3.87;;;;;6.30;100583.00;;;;9917510;29;20302;-80
2022/01/07 12:22:20;;;;;;;8.40;4.07;;;;;6.50;100572.00;;;;9917559;29;20255;-81
2022/01/07 12:27:24;;;;;;;8.93;5.07;;;;;6.50;100576.00;;;;9902184;29;20226;-80
2022/01/07 12:32:37;;;;;;;5.43;3.50;;;;;6.50;100575.00;;;;9902044;29;20209;-80
2022/01/07 12:37:39;;;;;;;7.70;3.87;;;;;6.40;100586.00;;;;9901251;29;20233;-80
2022/01/07 12:42:44;;;;;;;6.57;2.80;;;;;6.10;100592.00;;;;9901026;29;20631;-80
2022/01/07 12:47:46;;;;;;;4.37;2.33;;;;;5.70;100608.00;;;;9901713;29;20199;-81
2022/01/07 12:52:47;;;;;;;4.17;2.13;;;;;5.60;100588.00;;;;9901931;29;20267;-81
2022/01/07 12:57:52;;;;;;;6.23;2.83;;;;;5.60;100563.00;;;;9922176;29;20310;-81
2022/01/07 13:03:12;;;;;;;3.97;2.50;;;;;5.70;100571.00;;;;9886333;30;20628;-81
2022/01/07 13:08:17;;;;;;;4.77;2.80;;;;;5.90;100570.00;;;;9903893;29;20227;-81
2022/01/07 13:13:21;;;;;;;6.67;2.60;;;;;6.00;100558.00;;;;9908131;29;20234;-82
2022/01/07 13:18:31;;;;;;;3.30;1.10;;;;;6.00;100555.00;;;;9907908;29;20218;-81
2022/01/07 13:23:44;;;;;;;4.83;1.70;;;;;5.90;100548.00;;;;9907445;29;20248;-81
2022/01/07 13:28:48;;;;;;;3.37;1.30;;;;;5.90;100553.00;;;;9892990;29;20282;-81
2022/01/07 13:33:52;;;;;;;2.30;0.93;;;;;5.80;100568.00;;;;9907535;29;20242;-81
2022/01/07 13:39:05;;;;;;;3.40;1.37;;;;;5.70;100570.00;;;;9907047;29;20218;-81
2022/01/07 13:44:07;;;;;;;3.17;0.80;;;;;5.60;100552.00;;;;9892185;29;20613;-80
2022/01/07 13:49:10;;;;;;;2.93;1.07;;;;;5.50;100558.00;;;;9906818;29;20206;-80
2022/01/07 13:54:17;;;;;;;2.00;0.90;;;;;5.50;100575.00;;;;9892128;29;20203;-80
2022/01/07 13:59:19;;;;;;;2.27;0.70;;;;;5.50;100566.00;;;;9891837;29;20250;-80
2022/01/07 14:04:37;;;;;;;2.57;1.00;;;;;5.30;100556.00;;;;9893800;29;20203;-80
2022/01/07 14:09:39;;;;;;;1.17;0.80;;;;;5.20;100549.00;;;;9920716;29;20266;-80
2022/01/07 14:14:42;;;;;;;3.70;0.90;;;;;5.00;100556.00;;;;9909541;29;20667;-80
2022/01/07 14:19:56;;;;;;;3.93;0.73;;;;;4.80;100563.00;;;;9883844;30;20608;-80
2022/01/07 14:24:58;;;;;;;0.83;0.83;;;;;4.80;100561.00;;;;9898273;30;20672;-81
2022/01/07 14:30:05;;;;;;;5.10;0.97;;;;;4.60;100549.00;;;;9868717;30;20295;-81
2022/01/07 14:35:08;;;;;;;3.43;1.80;;;;;4.40;100550.00;;;;9868271;30;20231;-82
2022/01/07 14:40:11;;;;;;;6.13;2.67;;;;;4.30;100559.00;;;;9934980;29;20272;-81
2022/01/07 14:45:13;;;;;;;2.37;1.43;;;;;4.30;100560.00;;;;9904948;29;20616;-81
2022/01/07 14:50:15;;;;;;;4.57;1.30;;;;;4.30;100542.00;;;;9890147;29;20230;-80
2022/01/07 14:55:27;;;;;;;3.87;1.00;;;;;4.40;100550.00;;;;9905708;29;20644;-81
2022/01/07 15:00:30;;;;;;;1.87;1.03;;;;;4.50;100542.00;;;;9897825;29;20221;-80
2022/01/07 15:05:32;;;;;;;1.20;0.80;;;;;4.30;100539.00;;;;9919368;29;20205;-81
2022/01/07 15:10:40;;;;;;;1.37;0.77;;;;;3.90;100537.00;;;;9904989;29;20221;-81
2022/01/07 15:20:59;;;;;;;3.50;1.00;;;;;3.50;100535.00;;;;9903779;29;20218;-80
2022/01/07 15:26:03;;;;;;;1.37;1.03;;;;;3.30;100542.00;;;;9903123;29;20690;-83
2022/01/07 15:31:05;;;;;;;2.43;0.80;;;;;3.20;100541.00;;;;9889221;29;20187;-80
2022/01/07 15:36:07;;;;;;;1.10;0.73;;;;;3.10;100537.00;;;;9888929;29;20203;-80
2022/01/07 15:41:09;;;;;;;1.90;0.90;;;;;3.00;100531.00;;;;9903161;29;20603;-80
2022/01/07 15:46:10;;;;;;;1.13;0.70;;;;;2.90;100535.00;;;;9903618;29;20290;-81
2022/01/07 15:51:12;;;;;;;3.10;1.10;;;;;2.70;100552.00;;;;9888216;29;20294;-80
2022/01/07 15:56:15;;;;;;;3.73;1.30;;;;;2.50;100548.00;;;;9888393;29;20242;-81
2022/01/07 16:01:17;;;;;;;1.87;1.10;;;;;2.40;100524.00;;;;9888917;29;20237;-83
2022/01/07 16:06:19;;;;;;;3.20;1.63;;;;;2.30;100529.00;;;;9901772;29;20934;-83
2022/01/07 16:11:22;;;;;;;1.40;1.30;;;;;2.20;100524.00;;;;9887507;29;20289;-81
2022/01/07 16:16:24;;;;;;;3.47;1.90;;;;;2.20;100526.00;;;;9903052;29;20206;-83
2022/01/07 16:21:25;;;;;;;2.50;1.90;;;;;2.20;100532.00;;;;9916712;29;20222;-81
2022/01/07 16:26:29;;;;;;;4.23;2.30;;;;;2.20;100514.00;;;;9901404;29;20632;-83
2022/01/07 16:31:31;;;;;;;3.53;2.40;;;;;2.20;100517.00;;;;9922060;29;20203;-83
2022/01/07 16:36:33;;;;;;;4.63;2.23;;;;;2.20;100510.00;;;;9909724;29;20211;-81
2022/01/07 16:41:37;;;;;;;3.93;2.43;;;;;2.30;100510.00;;;;9894420;29;20309;-80
2022/01/07 16:46:38;;;;;;;5.53;3.20;;;;;2.40;100513.00;;;;9896994;29;20215;-80
2022/01/07 16:51:40;;;;;;;5.30;2.80;;;;;2.30;100513.00;;;;9908319;29;20269;-83
2022/01/07 16:56:43;;;;;;;6.67;2.90;;;;;2.30;100527.00;;;;9923367;29;20294;-83
2022/01/07 17:01:45;;;;;;;6.87;3.10;;;;;2.40;100518.00;;;;9907656;29;20310;-82
2022/01/07 17:06:47;;;;;;;6.53;2.00;;;;;2.50;100514.00;;;;9906772;29;20235;-81
2022/01/07 17:11:50;;;;;;;8.03;2.23;;;;;2.70;100512.00;;;;9904252;29;20306;-80
2022/01/07 17:16:52;;;;;;;4.40;2.20;;;;;2.90;100528.00;;;;9920953;29;20282;-80
2022/01/07 17:21:53;;;;;;;7.50;2.63;;;;;2.90;100515.00;;;;9920165;29;20238;-82
2022/01/07 17:26:55;;;;;;;8.10;2.17;;;;;3.00;100518.00;;;;9904860;29;20231;-82
2022/01/07 17:31:57;;;;;;;8.87;3.20;;;;;3.10;100527.00;;;;9905305;29;20238;-81
2022/01/07 17:37:04;;;;;;;12.60;3.10;;;;;3.10;100527.00;;;;9935161;29;20281;-80
2022/01/07 17:42:06;;;;;;;9.40;3.20;;;;;3.10;100513.00;;;;9919418;29;20618;-82
2022/01/07 17:47:08;;;;;;;5.63;2.63;;;;;3.10;100506.00;;;;9873803;30;20246;-82
2022/01/07 17:52:10;;;;;;;10.30;3.23;;;;;3.00;100514.00;;;;9896458;30;20199;-80
2022/01/07 17:57:12;;;;;;;7.10;3.57;;;;;3.00;100513.00;;;;9881356;30;20298;-80
2022/01/07 18:02:13;;;;;;;5.37;2.73;;;;;2.90;100513.00;;;;9881341;30;20310;-80
2022/01/07 18:07:16;;;;;;;8.00;3.00;;;;;3.00;100518.00;;;;9845639;29;1094582;-82
2022/01/07 18:12:18;;;;;;;6.00;2.63;;;;;3.00;100510.00;;;;9921271;29;20207;-83
2022/01/07 18:17:20;;;;;;;5.13;3.37;;;;;3.00;100513.00;;;;9921087;29;20698;-82
2022/01/07 18:22:37;;;;;;;9.60;2.93;;;;;2.90;100503.00;;;;9920328;29;20591;-82
2022/01/07 18:27:44;;;;;;;11.90;3.17;;;;;2.90;100512.00;;;;9920322;29;20260;-82
2022/01/07 18:32:46;;;;;;;13.00;3.70;;;;;2.90;100511.00;;;;9905515;29;20234;-82
2022/01/07 18:38:07;;;;;;;7.73;3.57;;;;;3.00;100512.00;;;;9907353;29;20310;-82
2022/01/07 18:43:09;;;;;;;9.50;3.83;;;;;3.00;100512.00;;;;9906392;29;20214;-82
2022/01/07 18:48:11;;;;;;;8.50;3.77;;;;;3.10;100501.00;;;;9889747;29;20227;-83
2022/01/07 18:53:13;;;;;;;13.20;5.70;;;;;3.20;100507.00;;;;9888521;29;20292;-82
2022/01/07 18:58:16;;;;;;;9.40;4.60;;;;;3.30;100503.00;;;;9903998;29;20652;-82
2022/01/07 19:03:19;;;;;;;15.30;5.87;;;;;3.40;100492.00;;;;9932585;29;20287;-82
2022/01/07 19:08:21;;;;;;;12.73;4.20;;;;;3.40;100494.00;;;;9890611;29;20235;-82
2022/01/07 19:13:23;;;;;;;9.57;4.17;;;;;3.50;100487.00;;;;9904946;29;20264;-82
2022/01/07 19:18:26;;;;;;;12.07;4.20;;;;;3.60;100490.00;;;;9889753;29;20242;-82
2022/01/07 19:23:29;;;;;;;13.43;3.90;;;;;3.60;100492.00;;;;9874939;29;20203;-82
2022/01/07 19:28:31;;;;;;;9.10;4.63;;;;;3.60;100499.00;;;;9888560;29;20207;-82
2022/01/07 19:33:33;;;;;;;8.73;4.27;;;;;3.60;100492.00;;;;9888492;29;20199;-82
2022/01/07 19:38:36;;;;;;;12.00;3.93;;;;;3.60;100493.00;;;;9888720;29;20321;-82
2022/01/07 19:43:38;;;;;;;12.23;3.53;;;;;3.60;100485.00;;;;9880294;30;20191;-83
2022/01/07 19:48:40;;;;;;;7.43;3.53;;;;;3.60;100492.00;;;;9895726;30;20203;-82
2022/01/07 19:53:42;;;;;;;5.33;2.50;;;;;3.70;100494.00;;;;9929961;29;20305;-82
2022/01/07 19:58:44;;;;;;;5.83;2.70;;;;;3.70;100491.00;;;;9905726;29;20245;-82
2022/01/07 20:03:46;;;;;;;7.03;3.00;;;;;3.70;100490.00;;;;9939405;29;20213;-82
2022/01/07 20:08:48;;;;;;;5.40;2.77;;;;;3.60;100485.00;;;;9926926;29;20258;-82
2022/01/07 20:13:53;;;;;;;4.90;2.50;;;;;3.60;100477.00;;;;9902393;29;20199;-82
2022/01/07 20:18:54;;;;;;;7.33;2.83;;;;;3.70;100479.00;;;;9916873;29;20718;-82
2022/01/07 20:23:58;;;;;;;6.50;2.70;;;;;3.70;100476.00;;;;9901407;29;20202;-79
2022/01/07 20:29:00;;;;;;;7.03;2.60;;;;;3.70;100485.00;;;;9915919;29;20199;-82
2022/01/07 20:34:02;;;;;;;5.57;2.83;;;;;3.60;100474.00;;;;9902544;29;20203;-81
2022/01/07 20:39:09;;;;;;;8.20;2.53;;;;;3.60;100469.00;;;;9902340;29;20313;-82
2022/01/07 20:44:13;;;;;;;6.47;2.47;;;;;3.60;100463.00;;;;9902455;29;20207;-82
2022/01/07 20:49:15;;;;;;;10.07;2.40;;;;;3.60;100466.00;;;;9901346;29;20199;-82
2022/01/07 20:54:17;;;;;;;4.37;2.53;;;;;3.60;100461.00;;;;9901952;29;20602;-81
2022/01/07 20:59:19;;;;;;;5.23;2.83;;;;;3.60;100456.00;;;;9893950;30;20311;-82
2022/01/07 21:04:22;;;;;;;6.77;2.93;;;;;3.60;100471.00;;;;9879030;30;20231;-82
2022/01/07 21:09:24;;;;;;;8.43;3.20;;;;;3.60;100469.00;;;;9881009;29;20235;-81
2022/01/07 21:14:26;;;;;;;5.07;2.43;;;;;3.60;100467.00;;;;9901915;29;20203;-81
2022/01/07 21:19:28;;;;;;;8.70;2.70;;;;;3.60;100469.00;;;;9908726;29;20215;-81
2022/01/07 21:24:30;;;;;;;10.13;2.73;;;;;3.50;100478.00;;;;9893348;29;20230;-81
2022/01/07 21:29:32;;;;;;;7.13;2.77;;;;;3.50;100480.00;;;;9908243;29;20234;-81
2022/01/07 21:34:35;;;;;;;6.93;2.73;;;;;3.50;100476.00;;;;9892996;29;20276;-81
2022/01/07 21:39:38;;;;;;;9.30;2.67;;;;;3.50;100473.00;;;;9892984;29;20293;-81
2022/01/07 21:44:40;;;;;;;11.70;2.93;;;;;3.50;100468.00;;;;9892679;29;20241;-81
2022/01/07 21:49:44;;;;;;;6.80;2.77;;;;;3.50;100457.00;;;;9907163;29;20267;-81
2022/01/07 21:54:46;;;;;;;12.00;2.87;;;;;3.40;100469.00;;;;9906955;29;20234;-81
2022/01/07 21:59:48;;;;;;;10.80;2.30;;;;;3.40;100477.00;;;;9897850;29;20258;-81
2022/01/07 22:04:49;;;;;;;12.07;3.17;;;;;3.30;100475.00;;;;9890813;29;20298;-81
2022/01/07 22:09:51;;;;;;;6.43;2.50;;;;;3.30;100471.00;;;;9883473;30;20246;-81
2022/01/07 22:14:53;;;;;;;8.27;3.33;;;;;3.30;100489.00;;;;9883486;30;20207;-81
2022/01/07 22:19:55;;;;;;;9.17;3.07;;;;;3.20;100489.00;;;;9882320;30;20319;-81
2022/01/07 22:24:57;;;;;;;10.13;3.53;;;;;3.20;100482.00;;;;9888916;30;20231;-81
2022/01/07 22:30:01;;;;;;;10.63;3.77;;;;;3.20;100485.00;;;;9896573;30;20624;-81
2022/01/07 22:35:05;;;;;;;6.73;3.10;;;;;3.20;100488.00;;;;9882612;30;20294;-81
2022/01/07 22:40:08;;;;;;;13.30;3.60;;;;;3.10;100492.00;;;;9904425;29;20219;-80
2022/01/07 22:45:11;;;;;;;4.67;2.87;;;;;3.00;100482.00;;;;9919267;29;20175;-81
2022/01/07 22:50:14;;;;;;;8.43;3.70;;;;;2.90;100486.00;;;;9918248;29;20201;-81
2022/01/07 22:55:16;;;;;;;9.80;4.47;;;;;2.70;100494.00;;;;9918673;29;20248;-81
2022/01/07 23:00:27;;;;;;;12.90;5.60;;;;;2.60;100504.00;;;;9918529;29;20219;-81
2022/01/07 23:05:32;;;;;;;11.57;5.33;;;;;2.50;100506.00;;;;9918257;29;20293;-81
2022/01/07 23:10:33;;;;;;;13.17;5.30;;;;;2.50;100506.00;;;;9884197;30;20298;-81
2022/01/07 23:15:36;;;;;;;15.67;6.00;;;;;2.40;100508.00;;;;9881266;30;20238;-81
2022/01/07 23:20:38;;;;;;;13.40;5.17;;;;;2.40;100510.00;;;;9866085;29;20599;-81
2022/01/07 23:25:43;;;;;;;11.33;6.03;;;;;2.30;100527.00;;;;9895091;30;20200;-81
2022/01/07 23:30:45;;;;;;;12.80;5.67;;;;;2.20;100533.00;;;;9894829;30;20287;-81
2022/01/07 23:35:47;;;;;;;11.13;6.23;;;;;2.20;100537.00;;;;9866769;29;20218;-81
2022/01/07 23:40:49;;;;;;;11.67;5.97;;;;;2.10;100544.00;;;;9907935;29;20317;-81
2022/01/07 23:45:51;;;;;;;20.07;6.17;;;;;2.10;100547.00;;;;9865126;30;20294;-81
2022/01/07 23:50:53;;;;;;;16.50;7.37;;;;;2.00;100551.00;;;;9880821;30;20277;-80
2022/01/07 23:55:55;;;;;;;15.30;6.70;;;;;2.00;100564.00;;;;9875680;29;20297;-80
